Ai Maru — JD2031 — position and weather

sailwx.info

Track history (hours):
 
Tides and Currents Weather Stations Pressure Air Temp Water Temp Dewpoint Dewpoint Depression Visibility Wind Speed Wind Dir Waves Ship Positions

Ai Maru

Last reported at 2017-Nov-12 13:29 UTC. Time now 2017-Nov-18 04:41 UTC.
Position N 34°34' E 134°46'.

Length 105 m; draft 5.3 m.

Type: Tanker. MMSI: 431501797.

Date/timePositionNaut miles runAvg speedWind from/ knotsBaromVisibWave heightAir tempDewpointWater temp
2017-Nov-12 13:29N 34°34' E 134°46'713.3
2017-Nov-12 12:56N 34°36' E 134°55'512.3
2017-Nov-12 12:30N 34°37' E 135°01'510.6
2017-Nov-12 12:00N 34°37' E 135°07'2 4.0
2017-Nov-12 11:31N 34°39' E 135°08'0 0.0
2017-Nov-12 11:00N 34°39' E 135°08'0 0.0
2017-Nov-12 10:30N 34°39' E 135°08'0 0.0
2017-Nov-12 10:00N 34°39' E 135°08'0 0.0
2017-Nov-12 09:30N 34°39' E 135°08'0 0.0
2017-Nov-12 09:01N 34°39' E 135°08'0 0.0
2017-Nov-12 08:20N 34°39' E 135°08'0 0.0
2017-Nov-12 07:56N 34°39' E 135°08'0 0.0
2017-Nov-12 07:26N 34°39' E 135°08'0 0.0
2017-Nov-12 06:56N 34°39' E 135°08'0 0.0
2017-Nov-12 06:20N 34°39' E 135°08'0 0.0
2017-Nov-12 05:56N 34°39' E 135°08'0 0.0
2017-Nov-12 05:20N 34°39' E 135°08'0 0.5
2017-Nov-12 05:00N 34°38' E 135°08'1 1.5
2017-Nov-12 04:30N 34°38' E 135°08'3 5.6
2017-Nov-12 04:00N 34°35' E 135°07'814.7
2017-Nov-12 03:28N 34°28' E 135°04'714.4
2017-Nov-12 03:00N 34°21' E 135°01'713.5
2017-Nov-12 02:30N 34°15' E 134°59'613.0
2017-Nov-12 02:00N 34°08' E 134°60'226 6.4
2017-Nov-10 14:48N 34°58' E 139°28'512.7
2017-Nov-10 14:26N 35°01' E 139°33'512.7
2017-Nov-10 14:00N 35°03' E 139°38'613.0
2017-Nov-10 13:30N 35°08' E 139°43'712.9
2017-Nov-10 13:00N 35°14' E 139°46'612.9
2017-Nov-10 12:30N 35°20' E 139°43'612.8
2017-Nov-10 12:00N 35°26' E 139°46'714.1
2017-Nov-10 11:30N 35°30' E 139°53'4 0.5
2017-Nov-10 03:27N 35°31' E 139°58'4 6.7
2017-Nov-10 02:50N 35°29' E 139°54'0 0.0
2017-Nov-10 02:29N 35°29' E 139°54'0 0.0
2017-Nov-10 01:47N 35°29' E 139°54'0 0.0
2017-Nov-10 01:29N 35°29' E 139°54'0 0.1
2017-Nov-10 00:32N 35°29' E 139°54'0 0.0
2017-Nov-09 21:11N 35°29' E 139°54'0 0.0
2017-Nov-09 20:53N 35°29' E 139°54'0 0.0
2017-Nov-09 20:29N 35°29' E 139°54'0 0.0
2017-Nov-09 19:29N 35°29' E 139°54'0 0.1
2017-Nov-09 18:43N 35°29' E 139°54'2 7.8
2017-Nov-09 18:30N 35°28' E 139°52'613.0
2017-Nov-09 18:00N 35°24' E 139°46'611.9
2017-Nov-09 17:30N 35°18' E 139°45'612.5
2017-Nov-09 17:00N 35°12' E 139°47'11 0.2
2017-Nov-07 16:56N 35°04' E 139°37'614.2
2017-Nov-07 16:30N 35°08' E 139°43'713.7
2017-Nov-07 16:00N 35°14' E 139°46'612.6
2017-Nov-07 15:30N 35°19' E 139°43'612.5
2017-Nov-07 15:00N 35°25' E 139°45'714.2
2017-Nov-07 14:30N 35°30' E 139°52'712.6
2017-Nov-07 13:58N 35°29' E 140°00'1 0.1
2017-Nov-07 06:09N 35°29' E 140°01'1 3.7
2017-Nov-07 06:00N 35°29' E 140°00'611.2
2017-Nov-07 05:31N 35°29' E 139°53'714.0
2017-Nov-07 05:00N 35°25' E 139°47'613.0
2017-Nov-07 04:30N 35°18' E 139°44'612.4
2017-Nov-07 04:00N 35°12' E 139°47'22 0.5
2017-Nov-05 10:24N 34°51' E 139°52'614.1
2017-Nov-05 09:57N 34°54' E 139°46'715.0
2017-Nov-05 09:30N 35°01' E 139°43'713.8
2017-Nov-05 09:00N 35°08' E 139°44'713.1
2017-Nov-05 08:31N 35°14' E 139°46'612.3
2017-Nov-05 08:01N 35°19' E 139°43'612.8
2017-Nov-05 07:30N 35°26' E 139°45'713.7
2017-Nov-05 07:00N 35°29' E 139°52'3 5.6
2017-Nov-05 06:30N 35°29' E 139°55'0 0.0
2017-Nov-05 05:56N 35°29' E 139°55'0 0.0
2017-Nov-05 05:30N 35°29' E 139°55'0 0.3
2017-Nov-05 04:54N 35°29' E 139°55'5 0.8
2017-Nov-04 23:14N 35°28' E 140°01'1 5.0
2017-Nov-04 23:00N 35°29' E 140°00'2 1.5
2017-Nov-04 21:45N 35°30' E 139°58'0 0.3
2017-Nov-04 21:29N 35°30' E 139°58'4 9.1
2017-Nov-04 21:00N 35°29' E 139°53'612.7
2017-Nov-04 20:31N 35°25' E 139°47'612.0
2017-Nov-04 20:01N 35°19' E 139°44'612.0
2017-Nov-04 19:31N 35°14' E 139°47'713.6
2017-Nov-04 19:00N 35°07' E 139°45'714.5
2017-Nov-04 18:30N 34°60' E 139°43'714.1
2017-Nov-04 18:00N 34°53' E 139°47'1112.6
2017-Nov-04 17:08N 34°54' E 140°00'314.5
2017-Nov-04 16:56N 34°55' E 140°03'  
Track history (hours):
 
Tides and Currents Weather Stations Pressure Air Temp Water Temp Dewpoint Dewpoint Depression Visibility Wind Speed Wind Dir Waves Ship Positions

Ai Maru

Last reported at 2017-Nov-12 13:29 UTC. Time now 2017-Nov-18 04:41 UTC.
Position N 34°34' E 134°46'.

Length 105 m; draft 5.3 m.

Type: Tanker. MMSI: 431501797.

Date/timePositionNaut miles runAvg speedWind from/ knotsBaromVisibWave heightAir tempDewpointWater temp
2017-Nov-12 13:29N 34°34' E 134°46'713.3
2017-Nov-12 12:56N 34°36' E 134°55'512.3
2017-Nov-12 12:30N 34°37' E 135°01'510.6
2017-Nov-12 12:00N 34°37' E 135°07'2 4.0
2017-Nov-12 11:31N 34°39' E 135°08'0 0.0
2017-Nov-12 11:00N 34°39' E 135°08'0 0.0
2017-Nov-12 10:30N 34°39' E 135°08'0 0.0
2017-Nov-12 10:00N 34°39' E 135°08'0 0.0
2017-Nov-12 09:30N 34°39' E 135°08'0 0.0
2017-Nov-12 09:01N 34°39' E 135°08'0 0.0
2017-Nov-12 08:20N 34°39' E 135°08'0 0.0
2017-Nov-12 07:56N 34°39' E 135°08'0 0.0
2017-Nov-12 07:26N 34°39' E 135°08'0 0.0
2017-Nov-12 06:56N 34°39' E 135°08'0 0.0
2017-Nov-12 06:20N 34°39' E 135°08'0 0.0
2017-Nov-12 05:56N 34°39' E 135°08'0 0.0
2017-Nov-12 05:20N 34°39' E 135°08'0 0.5
2017-Nov-12 05:00N 34°38' E 135°08'1 1.5
2017-Nov-12 04:30N 34°38' E 135°08'3 5.6
2017-Nov-12 04:00N 34°35' E 135°07'814.7
2017-Nov-12 03:28N 34°28' E 135°04'714.4
2017-Nov-12 03:00N 34°21' E 135°01'713.5
2017-Nov-12 02:30N 34°15' E 134°59'613.0
2017-Nov-12 02:00N 34°08' E 134°60'226 6.4
2017-Nov-10 14:48N 34°58' E 139°28'512.7
2017-Nov-10 14:26N 35°01' E 139°33'512.7
2017-Nov-10 14:00N 35°03' E 139°38'613.0
2017-Nov-10 13:30N 35°08' E 139°43'712.9
2017-Nov-10 13:00N 35°14' E 139°46'612.9
2017-Nov-10 12:30N 35°20' E 139°43'612.8
2017-Nov-10 12:00N 35°26' E 139°46'714.1
2017-Nov-10 11:30N 35°30' E 139°53'4 0.5
2017-Nov-10 03:27N 35°31' E 139°58'4 6.7
2017-Nov-10 02:50N 35°29' E 139°54'0 0.0
2017-Nov-10 02:29N 35°29' E 139°54'0 0.0
2017-Nov-10 01:47N 35°29' E 139°54'0 0.0
2017-Nov-10 01:29N 35°29' E 139°54'0 0.1
2017-Nov-10 00:32N 35°29' E 139°54'0 0.0
2017-Nov-09 21:11N 35°29' E 139°54'0 0.0
2017-Nov-09 20:53N 35°29' E 139°54'0 0.0
2017-Nov-09 20:29N 35°29' E 139°54'0 0.0
2017-Nov-09 19:29N 35°29' E 139°54'0 0.1
2017-Nov-09 18:43N 35°29' E 139°54'2 7.8
2017-Nov-09 18:30N 35°28' E 139°52'613.0
2017-Nov-09 18:00N 35°24' E 139°46'611.9
2017-Nov-09 17:30N 35°18' E 139°45'612.5
2017-Nov-09 17:00N 35°12' E 139°47'11 0.2
2017-Nov-07 16:56N 35°04' E 139°37'614.2
2017-Nov-07 16:30N 35°08' E 139°43'713.7
2017-Nov-07 16:00N 35°14' E 139°46'612.6
2017-Nov-07 15:30N 35°19' E 139°43'612.5
2017-Nov-07 15:00N 35°25' E 139°45'714.2
2017-Nov-07 14:30N 35°30' E 139°52'712.6
2017-Nov-07 13:58N 35°29' E 140°00'1 0.1
2017-Nov-07 06:09N 35°29' E 140°01'1 3.7
2017-Nov-07 06:00N 35°29' E 140°00'611.2
2017-Nov-07 05:31N 35°29' E 139°53'714.0
2017-Nov-07 05:00N 35°25' E 139°47'613.0
2017-Nov-07 04:30N 35°18' E 139°44'612.4
2017-Nov-07 04:00N 35°12' E 139°47'22 0.5
2017-Nov-05 10:24N 34°51' E 139°52'614.1
2017-Nov-05 09:57N 34°54' E 139°46'715.0
2017-Nov-05 09:30N 35°01' E 139°43'713.8
2017-Nov-05 09:00N 35°08' E 139°44'713.1
2017-Nov-05 08:31N 35°14' E 139°46'612.3
2017-Nov-05 08:01N 35°19' E 139°43'612.8
2017-Nov-05 07:30N 35°26' E 139°45'713.7
2017-Nov-05 07:00N 35°29' E 139°52'3 5.6
2017-Nov-05 06:30N 35°29' E 139°55'0 0.0
2017-Nov-05 05:56N 35°29' E 139°55'0 0.0
2017-Nov-05 05:30N 35°29' E 139°55'0 0.3
2017-Nov-05 04:54N 35°29' E 139°55'5 0.8
2017-Nov-04 23:14N 35°28' E 140°01'1 5.0
2017-Nov-04 23:00N 35°29' E 140°00'2 1.5
2017-Nov-04 21:45N 35°30' E 139°58'0 0.3
2017-Nov-04 21:29N 35°30' E 139°58'4 9.1
2017-Nov-04 21:00N 35°29' E 139°53'612.7
2017-Nov-04 20:31N 35°25' E 139°47'612.0
2017-Nov-04 20:01N 35°19' E 139°44'612.0
2017-Nov-04 19:31N 35°14' E 139°47'713.6
2017-Nov-04 19:00N 35°07' E 139°45'714.5
2017-Nov-04 18:30N 34°60' E 139°43'714.1
2017-Nov-04 18:00N 34°53' E 139°47'1112.6
2017-Nov-04 17:08N 34°54' E 140°00'314.5
2017-Nov-04 16:56N 34°55' E 140°03'  

Dump ship's entire track history